Flight Track Log - Related Links

Times and Time Zones

All times are in EDT time to prevent confusion due to time zone crossing. See the EGF3063 flight status page for this flight to view local times or setup timezone preferences in your user account.

Time Position Orientation Groundspeed Altitude Reporting Facility
EDT Latitude Longitude Course Direction KTS MPH feet Rate Location/Type
Thu 06:54:41 PM 36.3119 -94.3858 254° West 228 262 5,700  Level Memphis Center
Thu 06:55:43 PM 36.2503 -94.4000 190° South 227 261 8,100 2,129 Climbing Memphis Center
Thu 06:56:45 PM 36.1828 -94.4147 190° South 236 272 10,100 1,548 Climbing Memphis Center
Thu 06:57:47 PM 36.1064 -94.4328 191° South 260 299 11,300 1,258 Climbing Memphis Center
Thu 06:58:49 PM 36.0167 -94.4519 190° South 302 348 12,700 1,403 Climbing Memphis Center
Thu 06:59:51 PM 35.9244 -94.4736 191° South 324 373 14,200 1,694 Climbing Memphis Center
Thu 07:00:53 PM 35.8131 -94.4986 190° South 333 383 16,200 1,742 Climbing Memphis Center
Thu 07:01:55 PM 35.7211 -94.5192 190° South 333 383 17,800 1,296 Climbing Memphis Center
Thu 07:02:58 PM 35.6297 -94.5406 191° South 333 383 18,900 1,104 Climbing Memphis Center
Thu 07:04:00 PM 35.5361 -94.5617 190° South 334 384 20,100 1,161 Climbing Memphis Center
Thu 07:05:02 PM 35.4372 -94.5831 190° South 350 403 21,300 1,210 Climbing Memphis Center
Thu 07:06:04 PM 35.3375 -94.6058 191° South 353 406 22,600 1,210 Climbing Memphis Center
Thu 07:07:06 PM 35.2356 -94.6289 190° South 366 421 23,800 1,258 Climbing Memphis Center
Thu 07:08:08 PM 35.1150 -94.6553 190° South 367 422 25,200 1,210 Climbing Memphis Center
Thu 07:09:10 PM 35.0142 -94.6794 191° South 367 422 26,300 968 Climbing Memphis Center
Thu 07:10:12 PM 34.9233 -94.7342 206° Southwest 375 432 27,200 823 Climbing Memphis Center
Thu 07:11:14 PM 34.8169 -94.7336 180° South 378 435 28,000 387 Climbing Memphis Center
Thu 07:12:16 PM 34.7169 -94.7553 190° South 379 436 28,000  Level Memphis Center
Thu 07:13:19 PM 34.6433 -94.8406 224° Southwest 370 426 28,000  Level Memphis Center
Thu 07:14:24 PM 34.5606 -94.9494 227° Southwest 369 425 28,000  Level Fort Worth Center
Thu 07:15:26 PM 34.4886 -95.0414 227° Southwest 373 429 28,000  Level Fort Worth Center
Thu 07:16:28 PM 34.4158 -95.1339 226° Southwest 378 435 28,000  Level Fort Worth Center
Thu 07:17:30 PM 34.3431 -95.2267 226° Southwest 379 436 28,000 -48 Level Fort Worth Center
Thu 07:18:32 PM 34.2553 -95.3381 226° Southwest 380 437 27,900 -774 Descending Fort Worth Center
Thu 07:19:34 PM 34.1800 -95.4322 226° Southwest 387 445 26,400 -1,645 Descending Fort Worth Center
Thu 07:20:36 PM 34.1019 -95.5317 227° Southwest 400 460 24,500 -1,887 Descending Fort Worth Center
Thu 07:21:38 PM 34.0228 -95.6311 226° Southwest 391 450 22,500 -1,839 Descending Fort Worth Center
Thu 07:22:40 PM 33.9503 -95.7219 226° Southwest 382 440 20,700 -1,776 Descending Fort Worth Center
Thu 07:23:43 PM 33.8808 -95.8100 226° Southwest 369 425 18,800 -1,776 Descending Fort Worth Center
Thu 07:24:45 PM 33.8017 -95.9061 225° Southwest 362 417 17,000 -1,355 Descending Fort Worth Center
Thu 07:25:47 PM 33.7286 -95.9958 226° Southwest 349 402 16,000 -484 Descending Fort Worth Center
Thu 07:26:49 PM 33.6611 -96.0811 226° Southwest 350 403 16,000  Level Fort Worth Center
Thu 07:27:51 PM 33.5881 -96.1706 226° Southwest 349 402 16,000 -1,113 Level Fort Worth Center
Thu 07:28:53 PM 33.5214 -96.2528 226° Southwest 348 400 13,700 -2,081 Descending Fort Worth Center
Thu 07:29:55 PM 33.4547 -96.3336 225° Southwest 318 366 11,700 -1,306 Descending Fort Worth Center
Thu 07:30:57 PM 33.3997 -96.3989 225° Southwest 279 321 11,000 -871 Descending Fort Worth Center
Thu 07:31:59 PM 33.3561 -96.4719 234° Southwest 259 298 9,900 -1,008 Descending Fort Worth Center
Thu 07:33:02 PM 33.3353 -96.5536 253° West 257 296 8,900 -1,008 Descending Fort Worth Center
Thu 07:34:04 PM 33.3089 -96.6400 250° West 257 296 7,800 -1,016 Descending Fort Worth Center
Thu 07:35:06 PM 33.2856 -96.7214 251° West 258 297 6,800 -968 Descending Fort Worth Center
Thu 07:36:08 PM 33.2628 -96.8022 251° West 258 297 5,800 -871 Descending Fort Worth Center
Thu 07:37:10 PM 33.2367 -96.8933 251° West 263 303 5,000 -387 Descending Fort Worth Center
Thu 07:38:12 PM 33.2111 -96.9800 251° West 266 306 5,000 -242 Level Fort Worth Center
Thu 07:39:14 PM 33.1494 -97.0206 209° Southwest 253 291 4,500 -581 Descending Fort Worth Center
Thu 07:40:16 PM 33.0797 -97.0250 183° South 229 264 3,800 -823 Descending Fort Worth Center
Thu 07:41:18 PM 33.0286 -97.0267 182° South 188 216 2,800 -912 Descending Fort Worth Center
Thu 07:42:21 PM 32.9817 -97.0261 179° South 172 198 1,900 -864 Descending Fort Worth Center
Thu 07:43:23 PM 32.9378 -97.0269 181° South 151 174 1,000 -581 Descending Fort Worth Center
Thu 07:44:25 PM 32.8958 -97.0283 182° South 151 174 700 -290 Descending Fort Worth Center
Thu 07:46:00 PM 32.8833 -97.0333 185° South  Level FlightAware Approximate
Thu 07:53:00 PM 32.8968 -97.0380 344° North  Level Estimated

Login

Don't have an account? Register now (free) for customized features, flight alerts, and more!